Time;durP1;ratioP1;P1;durP2;ratioP2;P2;SDS_P1;SDS_P2;PMS_P1;PMS_P2;Temp;Humidity;BMP_temperature;BMP_pressure;BME280_temperature;BME280_humidity;BME280_pressure;Samples;Min_cycle;Max_cycle;Signal;HPM_P1;HPM_P2
2022/12/08 00:01:15;;;;;;;19.73;14.82;;;;;;;5.03;82.69;100895.53;3575395;40;20328;-64
2022/12/08 00:03:42;;;;;;;20.83;14.55;;;;;;;5.03;82.53;100884.88;3575176;40;20061;-63
2022/12/08 00:09:35;;;;;;;22.52;15.95;;;;;;;5.13;82.89;100883.59;3574816;40;20058;-64
2022/12/08 00:12:06;;;;;;;21.98;15.88;;;;;;;5.14;81.74;100885.34;3575602;40;20063;-64
2022/12/08 00:14:41;;;;;;;22.30;16.85;;;;;;;5.12;82.02;100872.06;3575925;40;20067;-64
2022/12/08 00:17:10;;;;;;;22.73;16.48;;;;;;;5.08;82.27;100869.59;3576502;40;20075;-64
2022/12/08 00:19:38;;;;;;;22.92;17.45;;;;;;;5.11;82.25;100875.69;3575005;40;20398;-63
2022/12/08 00:22:06;;;;;;;22.92;17.60;;;;;;;5.11;82.29;100869.50;3576352;40;20071;-63
2022/12/08 00:24:38;;;;;;;23.65;19.25;;;;;;;5.09;82.32;100866.00;3577095;40;20060;-63
2022/12/08 00:27:05;;;;;;;26.33;19.55;;;;;;;5.07;82.39;100862.53;3577149;40;20052;-64
2022/12/08 00:29:31;;;;;;;27.10;19.52;;;;;;;5.09;82.30;100858.00;3574228;40;20056;-63
2022/12/08 00:31:57;;;;;;;24.95;19.25;;;;;;;5.05;82.55;100859.06;3572793;40;20592;-64
2022/12/08 00:34:22;;;;;;;25.25;20.50;;;;;;;5.08;82.81;100862.47;3576510;40;20055;-63
2022/12/08 00:36:48;;;;;;;26.55;20.83;;;;;;;5.08;82.17;100858.94;3573365;40;20053;-64
2022/12/08 00:39:16;;;;;;;27.77;20.85;;;;;;;5.07;82.14;100854.53;3569048;40;20470;-64
2022/12/08 00:44:26;;;;;;;29.45;21.95;;;;;;;5.07;82.37;100850.09;3576179;40;20092;-63
2022/12/08 00:46:52;;;;;;;28.98;23.10;;;;;;;5.08;82.80;100853.63;3578047;40;20079;-64
2022/12/08 00:49:18;;;;;;;28.70;22.80;;;;;;;5.10;83.11;100846.41;3574765;40;20120;-64
2022/12/08 00:51:44;;;;;;;27.35;21.58;;;;;;;5.08;82.17;100851.81;3576606;40;20064;-63
2022/12/08 00:54:10;;;;;;;30.75;23.65;;;;;;;5.10;82.36;100841.09;3577841;40;20430;-63
2022/12/08 00:56:37;;;;;;;30.63;23.65;;;;;;;5.13;82.80;100846.28;3576543;40;20436;-64
2022/12/08 00:59:05;;;;;;;29.50;22.23;;;;;;;5.13;82.52;100840.97;3576833;40;20052;-64
2022/12/08 01:01:32;;;;;;;28.80;22.30;;;;;;;5.12;82.09;100841.91;3576923;40;20076;-63
2022/12/08 01:04:04;;;;;;;29.20;22.27;;;;;;;5.11;82.62;100833.06;3570563;40;20074;-63
2022/12/08 01:06:30;;;;;;;26.08;21.35;;;;;;;5.09;82.64;100834.91;3578849;40;20060;-64
2022/12/08 01:08:56;;;;;;;27.25;21.13;;;;;;;4.98;82.41;100814.91;3580376;40;20480;-64
2022/12/08 01:11:21;;;;;;;26.42;21.15;;;;;;;5.12;82.29;100836.56;3575261;40;20064;-64
2022/12/08 01:13:47;;;;;;;24.92;19.58;;;;;;;5.11;82.33;100830.38;3577555;40;20053;-64
2022/12/08 01:16:27;;;;;;;24.95;19.17;;;;;;;5.12;82.59;100823.25;3578026;40;20056;-63
2022/12/08 01:18:54;;;;;;;23.38;18.67;;;;;;;5.14;82.47;100821.41;3578191;40;20113;-63
2022/12/08 01:21:20;;;;;;;23.45;17.15;;;;;;;5.16;82.62;100824.84;3578789;40;20074;-63
2022/12/08 01:23:46;;;;;;;22.55;17.45;;;;;;;5.18;82.29;100812.34;3577086;40;20369;-64
2022/12/08 01:26:15;;;;;;;22.42;16.88;;;;;;;5.20;82.10;100817.63;3577019;40;20357;-63
2022/12/08 01:28:43;;;;;;;24.55;16.85;;;;;;;4.74;81.69;100742.19;3577718;40;20359;-63
2022/12/08 01:31:16;;;;;;;20.35;16.58;;;;;;;5.21;81.91;100816.69;3577637;40;20342;-64
2022/12/08 01:33:43;;;;;;;22.05;16.50;;;;;;;5.21;81.69;100812.25;3577007;40;20379;-63
2022/12/08 01:36:26;;;;;;;25.88;18.20;;;;;;;5.22;81.88;100827.28;3577599;40;20115;-64
2022/12/08 01:38:55;;;;;;;29.55;19.58;;;;;;;5.23;81.85;100820.16;3573013;40;20067;-64
2022/12/08 01:41:25;;;;;;;26.50;19.55;;;;;;;5.24;82.02;100814.78;3575852;40;20102;-64
2022/12/08 01:44:06;;;;;;;28.10;19.30;;;;;;;5.26;81.60;100815.56;3574869;40;20276;-63
2022/12/08 01:46:35;;;;;;;28.48;20.88;;;;;;;5.28;81.54;100819.03;3576381;40;20058;-63
2022/12/08 01:49:11;;;;;;;25.65;17.05;;;;;;;5.23;81.31;100805.06;3577698;40;20066;-64
2022/12/08 01:51:53;;;;;;;23.80;17.38;;;;;;;5.30;81.49;100811.88;3576654;40;20070;-63
2022/12/08 01:54:26;;;;;;;24.50;17.45;;;;;;;5.32;81.24;100809.13;3576926;40;20056;-63
2022/12/08 01:57:04;;;;;;;24.42;16.20;;;;;;;5.34;81.67;100799.28;3579322;40;20059;-63
2022/12/08 01:59:40;;;;;;;21.65;17.30;;;;;;;5.34;81.51;100802.81;3576856;40;20083;-64
2022/12/08 02:02:09;;;;;;;21.65;14.80;;;;;;;5.32;81.34;100802.00;3577447;40;20084;-64
2022/12/08 02:04:35;;;;;;;18.83;13.60;;;;;;;5.31;81.61;100805.59;3577614;40;20084;-63
2022/12/08 02:07:02;;;;;;;16.98;13.70;;;;;;;5.31;81.63;100797.59;3576220;40;20653;-63
2022/12/08 02:09:28;;;;;;;18.30;14.00;;;;;;;5.31;81.44;100802.06;3577943;40;20324;-63
2022/12/08 02:11:58;;;;;;;17.77;13.15;;;;;;;5.32;81.82;100798.47;3578799;40;20084;-63
2022/12/08 02:14:24;;;;;;;19.35;13.52;;;;;;;5.30;81.20;100793.22;3576509;40;20048;-63
2022/12/08 02:17:21;;;;;;;15.10;13.10;;;;;;;5.32;81.40;100793.13;3579530;40;20059;-63
2022/12/08 02:20:27;;;;;;;16.38;13.10;;;;;;;5.31;81.37;100786.94;3578684;40;20513;-64
2022/12/08 02:23:15;;;;;;;15.32;12.07;;;;;;;5.29;81.62;100791.47;3568668;40;20051;-63
2022/12/08 02:26:31;;;;;;;13.60;11.27;;;;;;;5.25;81.93;100776.53;3579159;40;20056;-63
2022/12/08 02:29:52;;;;;;;14.45;11.32;;;;;;;5.25;81.81;100779.19;3577620;40;20060;-63
2022/12/08 02:33:17;;;;;;;14.13;10.70;;;;;;;5.26;81.74;100778.25;3578588;40;20091;-63
2022/12/08 02:36:21;;;;;;;13.30;10.40;;;;;;;5.23;81.89;100773.09;3577911;40;20087;-64
2022/12/08 02:39:30;;;;;;;11.77;9.20;;;;;;;5.22;81.94;100768.66;3575719;40;20056;-64
2022/12/08 02:42:26;;;;;;;13.07;9.63;;;;;;;5.25;81.81;100763.22;3563407;40;20052;-63
2022/12/08 02:45:16;;;;;;;11.98;8.88;;;;;;;5.24;82.12;100761.47;3574436;40;20129;-63
2022/12/08 02:47:43;;;;;;;11.48;8.35;;;;;;;5.24;82.19;100753.50;3576860;40;20057;-64
2022/12/08 02:50:10;;;;;;;13.48;8.93;;;;;;;5.25;82.04;100755.22;3576074;40;20068;-63
2022/12/08 02:52:43;;;;;;;12.55;8.77;;;;;;;5.23;81.95;100757.09;3576604;40;20060;-63
2022/12/08 02:55:24;;;;;;;9.73;8.38;;;;;;;5.23;82.02;100754.44;3577581;40;20084;-63
2022/12/08 02:58:28;;;;;;;10.07;8.52;;;;;;;5.23;82.06;100740.22;3577915;40;20642;-64
2022/12/08 03:01:13;;;;;;;12.45;8.07;;;;;;;5.24;82.03;100733.97;3573416;40;20307;-63
2022/12/08 03:04:00;;;;;;;13.90;8.77;;;;;;;5.21;82.30;100732.28;3576275;40;20060;-63
2022/12/08 03:06:57;;;;;;;10.20;8.48;;;;;;;5.20;82.20;100732.34;3575757;40;20064;-63
2022/12/08 03:09:53;;;;;;;12.60;9.35;;;;;;;5.19;82.32;100733.28;3576327;40;20445;-63
2022/12/08 03:12:47;;;;;;;12.52;10.02;;;;;;;5.18;82.61;100732.41;3575254;40;20052;-64
2022/12/08 03:15:19;;;;;;;12.70;9.43;;;;;;;5.20;82.37;100730.56;3575681;40;20106;-63
2022/12/08 03:17:57;;;;;;;12.75;9.85;;;;;;;5.21;82.61;100724.28;3575655;40;20064;-64
2022/12/08 03:20:28;;;;;;;14.30;10.50;;;;;;;5.18;83.08;100727.09;3575367;40;20060;-63
2022/12/08 03:23:01;;;;;;;13.40;9.80;;;;;;;5.21;82.46;100718.97;3578064;40;20056;-63
2022/12/08 03:25:35;;;;;;;12.57;10.82;;;;;;;5.23;82.62;100717.13;3575597;40;20117;-64
2022/12/08 03:28:01;;;;;;;15.13;11.48;;;;;;;5.22;82.26;100710.03;3576376;40;20100;-64
2022/12/08 03:30:35;;;;;;;14.45;11.27;;;;;;;5.27;82.62;100715.19;3575541;40;20063;-64
2022/12/08 03:33:12;;;;;;;18.25;12.77;;;;;;;5.26;82.16;100714.28;3575197;40;20067;-64
2022/12/08 03:35:41;;;;;;;18.77;13.82;;;;;;;5.27;82.65;100710.72;3578575;40;20060;-64
2022/12/08 03:38:15;;;;;;;21.35;15.95;;;;;;;5.05;82.51;100670.78;3578414;40;20051;-64
2022/12/08 03:40:43;;;;;;;20.05;15.50;;;;;;;5.24;82.76;100697.53;3576750;40;20399;-65
2022/12/08 03:43:09;;;;;;;24.58;17.77;;;;;;;5.27;83.15;100697.41;3577639;40;20468;-65
2022/12/08 03:45:35;;;;;;;23.42;18.55;;;;;;;5.30;82.70;100694.59;3574312;40;20096;-65
2022/12/08 03:48:01;;;;;;;29.15;20.23;;;;;;;5.32;82.89;100689.19;3577362;40;20055;-64
2022/12/08 03:50:26;;;;;;;27.88;19.88;;;;;;;5.35;83.31;100692.59;3575680;40;20657;-64
2022/12/08 03:52:52;;;;;;;27.85;21.25;;;;;;;5.21;83.02;100679.00;3577132;40;20126;-64
2022/12/08 03:55:20;;;;;;;31.35;23.40;;;;;;;4.94;82.90;100621.53;3576495;40;20095;-64
2022/12/08 03:57:45;;;;;;;31.60;23.15;;;;;;;5.35;82.94;100681.94;3576002;40;20052;-64
2022/12/08 04:00:16;;;;;;;33.08;24.70;;;;;;;5.35;83.44;100691.72;3578466;40;20052;-64
2022/12/08 04:02:41;;;;;;;31.38;23.88;;;;;;;5.32;83.53;100682.06;3576724;40;20048;-65
2022/12/08 04:05:08;;;;;;;37.28;26.17;;;;;;;5.34;83.28;100682.88;3575377;40;20116;-64
2022/12/08 04:07:33;;;;;;;31.40;24.50;;;;;;;5.34;83.08;100685.53;3575537;40;20068;-65
2022/12/08 04:09:59;;;;;;;33.65;25.90;;;;;;;5.34;83.58;100679.34;3576366;40;20060;-65
2022/12/08 04:12:24;;;;;;;35.40;26.23;;;;;;;5.34;83.37;100674.00;3574667;40;20048;-64
2022/12/08 04:14:50;;;;;;;34.38;25.77;;;;;;;5.32;83.42;100671.41;3574352;40;20323;-64
2022/12/08 04:17:16;;;;;;;33.05;24.50;;;;;;;5.31;83.40;100669.69;3576561;40;20067;-64
2022/12/08 04:19:41;;;;;;;34.45;24.95;;;;;;;5.17;83.79;100644.53;3574701;40;20064;-64
2022/12/08 04:22:07;;;;;;;30.80;24.00;;;;;;;5.33;83.83;100683.81;3576889;40;20058;-64
2022/12/08 04:24:32;;;;;;;32.00;23.13;;;;;;;5.31;83.54;100680.34;3575508;40;20064;-64
2022/12/08 04:26:58;;;;;;;31.98;23.50;;;;;;;5.32;83.47;100682.06;3577154;40;20063;-64
2022/12/08 04:29:24;;;;;;;30.17;22.38;;;;;;;5.33;83.53;100675.81;3578902;40;20067;-63
2022/12/08 04:31:49;;;;;;;28.63;21.30;;;;;;;5.33;84.01;100667.81;3577444;40;20119;-64
2022/12/08 04:34:15;;;;;;;27.70;20.85;;;;;;;5.31;83.33;100667.00;3578197;40;20063;-64
2022/12/08 04:36:40;;;;;;;28.98;20.45;;;;;;;5.33;83.26;100661.63;3575871;40;20100;-64
2022/12/08 04:39:06;;;;;;;25.85;19.15;;;;;;;5.33;83.60;100657.16;3578746;40;20060;-64
2022/12/08 04:41:32;;;;;;;23.42;17.48;;;;;;;5.16;83.47;100625.03;3577704;40;20071;-63
2022/12/08 04:43:57;;;;;;;20.92;15.75;;;;;;;5.33;83.01;100651.84;3579124;40;20105;-63
2022/12/08 04:46:23;;;;;;;20.30;15.82;;;;;;;5.33;83.22;100651.84;3577845;40;20063;-64
2022/12/08 04:48:49;;;;;;;18.27;13.68;;;;;;;5.32;82.87;100644.75;3581534;40;20060;-63
2022/12/08 04:51:19;;;;;;;17.15;12.25;;;;;;;5.31;82.36;100635.03;3579140;40;20410;-64
2022/12/08 04:53:46;;;;;;;18.98;12.55;;;;;;;5.31;82.32;100631.50;3576974;40;20586;-63
2022/12/08 04:56:15;;;;;;;17.95;12.63;;;;;;;5.32;83.02;100644.75;3577498;40;20372;-63
2022/12/08 04:58:41;;;;;;;15.73;10.90;;;;;;;5.30;82.67;100654.63;3579566;40;20056;-63
2022/12/08 05:01:07;;;;;;;15.02;10.45;;;;;;;5.29;82.90;100647.53;3577922;40;20134;-64
2022/12/08 05:03:32;;;;;;;12.10;9.07;;;;;;;5.25;82.36;100640.63;3576936;40;20088;-64
2022/12/08 05:05:59;;;;;;;15.55;8.88;;;;;;;5.21;82.31;100641.69;3580496;40;20417;-65
2022/12/08 05:08:26;;;;;;;9.13;6.88;;;;;;;5.19;82.19;100638.22;3577502;40;20326;-63
2022/12/08 05:10:52;;;;;;;8.43;6.38;;;;;;;5.18;81.95;100636.50;3576453;40;20088;-63
2022/12/08 05:13:17;;;;;;;8.20;5.03;;;;;;;5.18;82.01;100652.47;3577596;40;20060;-63
2022/12/08 05:15:43;;;;;;;6.78;4.80;;;;;;;5.04;82.06;100622.88;3580319;40;20056;-62
2022/12/08 05:18:09;;;;;;;8.30;4.90;;;;;;;5.19;81.69;100642.69;3577748;40;20053;-63
2022/12/08 05:20:35;;;;;;;6.30;4.68;;;;;;;5.10;81.55;100633.28;3579582;40;20082;-63
2022/12/08 05:23:00;;;;;;;7.78;5.15;;;;;;;5.18;81.81;100647.16;3579977;40;20065;-63
2022/12/08 05:25:27;;;;;;;7.85;5.53;;;;;;;5.17;81.59;100645.44;3580756;40;20272;-62
2022/12/08 05:27:52;;;;;;;7.32;5.93;;;;;;;5.13;82.28;100638.47;3577221;40;20055;-63
2022/12/08 05:30:18;;;;;;;9.60;6.22;;;;;;;5.13;82.59;100633.16;3581854;40;20059;-63
2022/12/08 05:32:44;;;;;;;13.48;8.95;;;;;;;5.10;82.34;100633.28;3579196;40;20064;-63
2022/12/08 05:35:09;;;;;;;8.13;6.25;;;;;;;5.15;82.43;100649.09;3580987;40;20064;-63
2022/12/08 05:37:35;;;;;;;7.72;5.53;;;;;;;5.12;82.22;100636.75;3579763;40;20063;-63
2022/12/08 05:40:01;;;;;;;7.47;5.82;;;;;;;5.13;82.15;100638.47;3576983;40;20285;-63
2022/12/08 05:42:26;;;;;;;16.80;11.98;;;;;;;5.12;82.16;100642.06;3580129;40;20055;-63
2022/12/08 05:44:52;;;;;;;7.10;5.10;;;;;;;5.12;82.04;100642.06;3576213;40;20067;-63
2022/12/08 05:47:18;;;;;;;4.57;3.72;;;;;;;5.11;81.64;100645.69;3578556;40;20096;-64
2022/12/08 05:49:44;;;;;;;5.10;2.50;;;;;;;4.99;81.33;100635.53;3578576;40;20118;-66
2022/12/08 05:52:09;;;;;;;3.70;2.33;;;;;;;5.02;81.45;100630.94;3578478;40;20307;-64
2022/12/08 05:54:35;;;;;;;3.58;2.40;;;;;;;5.06;81.23;100637.88;3578559;40;20054;-63
2022/12/08 05:57:00;;;;;;;4.78;2.47;;;;;;;5.08;81.44;100629.81;3578814;40;20052;-63
2022/12/08 05:59:26;;;;;;;3.85;2.75;;;;;;;5.08;82.04;100635.16;3581215;40;20094;-63
2022/12/08 06:01:52;;;;;;;3.67;2.60;;;;;;;5.09;82.24;100632.41;3578468;40;20063;-64
2022/12/08 06:04:17;;;;;;;6.47;3.08;;;;;;;5.11;82.22;100635.03;3579174;40;20061;-63
2022/12/08 06:06:43;;;;;;;3.58;2.58;;;;;;;5.09;81.64;100634.22;3576799;40;20311;-63
2022/12/08 06:09:11;;;;;;;4.43;2.20;;;;;;;4.77;81.65;100591.16;3577608;40;20060;-64
2022/12/08 06:11:36;;;;;;;4.18;2.60;;;;;;;5.05;82.12;100624.63;3579055;40;20409;-63
2022/12/08 06:14:02;;;;;;;4.40;2.60;;;;;;;5.06;82.14;100613.03;3575875;40;20391;-62
2022/12/08 06:16:28;;;;;;;4.18;2.30;;;;;;;5.06;82.17;100624.56;3581209;40;20052;-62
2022/12/08 06:18:55;;;;;;;4.38;3.42;;;;;;;5.06;82.42;100618.34;3571411;40;20059;-62
2022/12/08 06:21:22;;;;;;;3.63;2.40;;;;;;;5.07;82.50;100614.75;3579889;40;20126;-61
2022/12/08 06:23:50;;;;;;;5.00;2.53;;;;;;;5.08;82.29;100613.84;3577421;40;20071;-62
2022/12/08 06:26:18;;;;;;;3.63;2.50;;;;;;;5.06;82.30;100613.91;3579652;40;20117;-62
2022/12/08 06:28:44;;;;;;;4.13;2.20;;;;;;;5.11;82.14;100608.38;3579624;40;20096;-62
2022/12/08 06:31:20;;;;;;;3.72;2.90;;;;;;;5.12;82.14;100604.78;3577946;40;20060;-62
2022/12/08 06:33:47;;;;;;;6.05;3.00;;;;;;;5.13;82.65;100612.69;3578036;40;20608;-63
2022/12/08 06:36:16;;;;;;;3.65;2.85;;;;;;;5.16;82.56;100616.16;3577382;40;20388;-61
2022/12/08 06:38:43;;;;;;;5.15;3.30;;;;;;;5.13;82.29;100606.50;3576585;40;20048;-61
2022/12/08 06:41:09;;;;;;;4.90;3.50;;;;;;;5.15;82.91;100615.31;3576889;40;20060;-61
2022/12/08 06:43:35;;;;;;;4.32;3.92;;;;;;;5.18;82.70;100620.50;3577552;40;20060;-61
2022/12/08 06:46:05;;;;;;;6.40;4.72;;;;;;;5.21;82.91;100632.84;3577681;40;20141;-61
2022/12/08 06:48:30;;;;;;;6.82;4.15;;;;;;;5.24;82.66;100620.25;3580106;40;20056;-60
2022/12/08 06:50:56;;;;;;;4.28;3.60;;;;;;;5.24;82.68;100614.91;3577818;40;20048;-61
2022/12/08 06:53:21;;;;;;;5.25;3.65;;;;;;;5.22;82.39;100616.78;3578506;40;20098;-60
2022/12/08 06:55:52;;;;;;;4.18;3.28;;;;;;;5.24;82.08;100614.91;3575339;40;20067;-61
2022/12/08 06:58:19;;;;;;;4.90;3.50;;;;;;;5.24;82.02;100611.38;3577262;40;20280;-61
2022/12/08 07:00:45;;;;;;;4.22;3.47;;;;;;;5.26;82.69;100613.03;3578630;40;20053;-61
2022/12/08 07:03:11;;;;;;;3.80;3.42;;;;;;;5.26;82.28;100607.69;3575624;40;20071;-60
2022/12/08 07:05:38;;;;;;;6.70;3.70;;;;;;;5.28;82.84;100610.31;3578176;40;20064;-61
2022/12/08 07:08:07;;;;;;;6.32;3.65;;;;;;;5.26;82.22;100609.50;3578876;40;20415;-61
2022/12/08 07:10:33;;;;;;;6.78;4.32;;;;;;;5.11;82.79;100587.06;3577610;40;20044;-61
2022/12/08 07:12:59;;;;;;;7.63;4.88;;;;;;;5.27;82.23;100617.44;3575900;40;20071;-60
2022/12/08 07:15:25;;;;;;;8.85;7.00;;;;;;;5.27;82.51;100614.78;3578032;40;20068;-61
2022/12/08 07:17:51;;;;;;;16.20;10.93;;;;;;;5.26;82.55;100618.34;3576727;40;20064;-60
2022/12/08 07:20:17;;;;;;;17.50;12.73;;;;;;;5.24;82.70;100614.91;3578683;40;20079;-61
2022/12/08 07:22:50;;;;;;;17.17;13.40;;;;;;;5.27;82.80;100614.78;3578348;40;20073;-60
2022/12/08 07:25:16;;;;;;;18.83;14.30;;;;;;;5.29;82.59;100612.91;3578962;40;20415;-60
2022/12/08 07:27:42;;;;;;;20.17;16.67;;;;;;;5.22;81.88;100611.44;3580289;40;20105;-60
2022/12/08 07:30:08;;;;;;;23.08;17.65;;;;;;;5.25;82.33;100616.63;3576639;40;20060;-60
2022/12/08 07:32:36;;;;;;;25.85;19.30;;;;;;;5.22;82.52;100616.78;3577713;40;20053;-60
2022/12/08 07:35:01;;;;;;;25.15;19.52;;;;;;;5.16;82.58;100606.38;3577203;40;20076;-61
2022/12/08 07:37:27;;;;;;;24.15;19.95;;;;;;;5.19;82.66;100616.03;3577529;40;20406;-62
2022/12/08 07:39:52;;;;;;;25.80;19.70;;;;;;;5.19;82.32;100616.03;3577333;40;21070;-61
2022/12/08 07:42:18;;;;;;;27.83;20.35;;;;;;;5.19;82.59;100618.69;3579021;40;20659;-61
2022/12/08 07:44:43;;;;;;;25.80;21.63;;;;;;;5.17;82.91;100616.13;3575028;40;20091;-61
2022/12/08 07:47:09;;;;;;;28.65;21.38;;;;;;;5.17;82.51;100608.13;3577580;40;20056;-61
2022/12/08 07:49:35;;;;;;;27.55;21.63;;;;;;;5.12;82.65;100605.63;3577803;40;20431;-61
2022/12/08 07:52:00;;;;;;;26.27;21.05;;;;;;;5.19;82.85;100616.91;3567950;40;20064;-61
2022/12/08 07:54:26;;;;;;;29.40;21.65;;;;;;;5.18;82.67;100616.97;3574215;40;20075;-61
2022/12/08 07:56:52;;;;;;;29.65;22.67;;;;;;;5.17;82.82;100617.88;3576683;40;20052;-60
2022/12/08 07:59:18;;;;;;;29.60;21.95;;;;;;;5.16;82.99;100627.69;3577279;40;20326;-60
2022/12/08 08:01:44;;;;;;;28.17;23.13;;;;;;;5.14;82.69;100618.91;3574723;40;20060;-61
2022/12/08 08:04:10;;;;;;;27.25;22.95;;;;;;;5.12;83.27;100634.09;3573226;40;20063;-61
2022/12/08 08:06:36;;;;;;;25.88;21.05;;;;;;;5.10;82.78;100635.94;3576655;40;20406;-60
2022/12/08 08:09:02;;;;;;;24.02;18.98;;;;;;;5.04;81.89;100633.53;3576401;40;20422;-61
2022/12/08 08:11:28;;;;;;;22.88;18.58;;;;;;;5.02;82.31;100625.63;3575659;40;20295;-62
2022/12/08 08:13:56;;;;;;;21.83;16.48;;;;;;;5.01;82.31;100625.66;3576850;40;20060;-61
2022/12/08 08:16:22;;;;;;;24.05;17.48;;;;;;;4.99;81.66;100631.06;3578839;40;20084;-60
2022/12/08 08:18:49;;;;;;;22.80;17.73;;;;;;;5.04;81.79;100622.88;3575862;40;20063;-60
2022/12/08 08:21:17;;;;;;;21.63;15.75;;;;;;;5.03;82.14;100634.47;3575966;40;20048;-59
2022/12/08 08:23:43;;;;;;;21.20;16.63;;;;;;;5.06;81.86;100629.00;3577715;40;20385;-60
2022/12/08 08:26:08;;;;;;;20.13;15.45;;;;;;;5.07;82.49;100623.63;3577190;40;20068;-59
2022/12/08 08:28:34;;;;;;;21.65;15.93;;;;;;;5.09;82.34;100629.75;3576798;40;20311;-60
2022/12/08 08:31:01;;;;;;;19.90;15.68;;;;;;;5.10;82.48;100633.28;3575434;40;20064;-59
2022/12/08 08:33:27;;;;;;;21.27;16.92;;;;;;;5.11;82.58;100629.69;3577819;40;20092;-60
2022/12/08 08:35:54;;;;;;;21.88;17.27;;;;;;;5.14;82.31;100621.56;3576993;40;20072;-60
2022/12/08 08:38:20;;;;;;;20.45;17.73;;;;;;;5.15;82.84;100623.31;3575282;40;20101;-60
2022/12/08 08:40:46;;;;;;;27.98;20.90;;;;;;;5.18;82.61;100622.31;3575118;40;20407;-60
2022/12/08 08:43:27;;;;;;;28.20;21.25;;;;;;;5.20;83.11;100615.09;3575520;40;20064;-59
2022/12/08 08:45:59;;;;;;;28.30;22.33;;;;;;;5.21;82.66;100622.19;3575997;40;20127;-60
2022/12/08 08:48:27;;;;;;;26.63;22.27;;;;;;;5.18;83.20;100614.31;3575483;40;20049;-60
2022/12/08 08:50:53;;;;;;;31.98;23.10;;;;;;;5.23;82.75;100618.53;3574920;40;20057;-60
2022/12/08 08:53:20;;;;;;;30.15;23.65;;;;;;;5.27;82.58;100619.25;3576205;40;20084;-60
2022/12/08 08:55:47;;;;;;;32.72;25.25;;;;;;;5.29;83.06;100620.91;3575515;40;20115;-60
2022/12/08 08:58:13;;;;;;;31.88;26.02;;;;;;;4.97;82.79;100562.81;3575197;40;20064;-60
2022/12/08 09:00:39;;;;;;;32.85;26.05;;;;;;;5.31;83.01;100616.38;3577280;40;20060;-62
2022/12/08 09:03:05;;;;;;;28.70;24.00;;;;;;;5.30;82.81;100612.00;3576020;40;20068;-60
2022/12/08 09:05:30;;;;;;;30.08;23.83;;;;;;;5.32;82.93;100618.09;3576950;40;20076;-60
2022/12/08 09:07:56;;;;;;;28.85;22.65;;;;;;;5.31;83.06;100607.50;3576874;40;20171;-60
2022/12/08 09:10:21;;;;;;;32.40;25.60;;;;;;;4.56;82.91;100488.22;3578034;40;20048;-60
2022/12/08 09:12:47;;;;;;;29.70;24.70;;;;;;;5.24;82.46;100598.94;3572686;40;20056;-60
2022/12/08 09:15:13;;;;;;;33.22;25.75;;;;;;;5.33;82.71;100609.19;3577371;40;20399;-60
2022/12/08 09:17:38;;;;;;;29.50;24.83;;;;;;;5.32;83.11;100623.44;3578079;40;20103;-60
2022/12/08 09:20:05;;;;;;;29.77;24.70;;;;;;;5.32;82.93;100612.75;3576966;40;20052;-60
2022/12/08 09:22:31;;;;;;;31.13;24.77;;;;;;;5.32;82.80;100609.25;3577006;40;20471;-60
2022/12/08 09:24:57;;;;;;;29.75;22.92;;;;;;;5.37;83.09;100609.06;3577103;40;20052;-59
2022/12/08 09:27:22;;;;;;;29.58;24.15;;;;;;;5.38;83.03;100616.09;3577348;40;20072;-60
2022/12/08 09:29:48;;;;;;;26.48;20.50;;;;;;;5.38;83.19;100605.44;3578047;40;20068;-62
2022/12/08 09:32:13;;;;;;;28.85;19.80;;;;;;;5.40;82.79;100614.25;3577775;40;20438;-62
2022/12/08 09:34:39;;;;;;;25.00;19.67;;;;;;;5.39;82.53;100600.03;3578474;40;20067;-59
2022/12/08 09:37:05;;;;;;;23.60;18.83;;;;;;;5.42;82.60;100599.03;3577380;40;20411;-61
2022/12/08 09:39:30;;;;;;;21.98;17.67;;;;;;;5.44;82.30;100607.84;3579430;40;20052;-61
2022/12/08 09:42:05;;;;;;;26.48;19.45;;;;;;;5.44;82.11;100606.03;3576959;40;20674;-61
2022/12/08 09:44:43;;;;;;;25.38;21.27;;;;;;;5.40;81.79;100615.13;3569370;40;20071;-62
2022/12/08 09:47:22;;;;;;;30.05;24.40;;;;;;;5.38;81.79;100611.63;3569712;40;20401;-62
2022/12/08 09:50:14;;;;;;;30.25;24.80;;;;;;;5.34;81.77;100610.91;3576648;40;20329;-62
2022/12/08 09:53:08;;;;;;;38.63;26.65;;;;;;;5.38;82.32;100611.63;3575229;40;20057;-62
2022/12/08 09:55:45;;;;;;;41.05;29.90;;;;;;;5.39;82.00;100612.50;3577452;40;20323;-62
2022/12/08 09:59:01;;;;;;;40.40;29.30;;;;;;;5.40;82.24;100599.13;3577379;40;20407;-62
2022/12/08 10:01:32;;;;;;;42.83;30.58;;;;;;;5.41;82.70;100594.66;3568774;40;20078;-62
2022/12/08 10:04:00;;;;;;;41.15;30.98;;;;;;;5.44;82.26;100599.84;3575839;40;20083;-60
2022/12/08 10:07:11;;;;;;;42.30;29.58;;;;;;;5.43;81.96;100598.13;3579843;40;20056;-62
2022/12/08 10:10:26;;;;;;;45.72;31.63;;;;;;;5.42;82.41;100602.56;3578871;40;20048;-62
2022/12/08 10:13:46;;;;;;;42.10;30.88;;;;;;;5.32;81.74;100583.44;3574889;40;20052;-62
2022/12/08 10:16:21;;;;;;;42.72;29.55;;;;;;;5.35;81.54;100601.97;3578505;40;20045;-60
2022/12/08 10:19:10;;;;;;;43.17;29.13;;;;;;;5.34;81.37;100589.59;3578239;40;20055;-60
2022/12/08 10:21:35;;;;;;;43.05;28.67;;;;;;;5.33;81.30;100597.66;3576856;40;20376;-60
2022/12/08 10:24:17;;;;;;;38.97;27.92;;;;;;;5.29;82.05;100594.25;3571490;40;20151;-61
2022/12/08 10:26:44;;;;;;;38.60;27.60;;;;;;;5.30;82.13;100581.81;3576469;40;20094;-60
2022/12/08 10:29:14;;;;;;;38.05;26.50;;;;;;;5.31;82.42;100579.06;3578517;40;20063;-61
2022/12/08 10:31:39;;;;;;;35.33;25.83;;;;;;;5.31;82.31;100581.72;3578472;40;20318;-60
2022/12/08 10:34:25;;;;;;;49.38;36.78;;;;;;;5.31;82.28;100579.06;3576336;40;20060;-60
2022/12/08 10:36:56;;;;;;;51.25;37.63;;;;;;;5.23;82.45;100565.22;3577355;40;20377;-61
2022/12/08 10:39:31;;;;;;;43.10;29.38;;;;;;;5.31;81.73;100578.19;3578541;40;20064;-61
2022/12/08 10:42:21;;;;;;;39.40;28.08;;;;;;;5.30;81.81;100576.47;3578127;40;20057;-61
2022/12/08 10:45:07;;;;;;;36.13;23.88;;;;;;;5.28;81.96;100587.19;3577377;40;20057;-62
2022/12/08 10:47:40;;;;;;;34.80;22.55;;;;;;;5.05;82.22;100542.03;3577961;40;20480;-61
2022/12/08 10:50:35;;;;;;;27.17;18.60;;;;;;;5.25;81.92;100584.66;3578165;40;20056;-61
2022/12/08 10:53:06;;;;;;;26.70;18.20;;;;;;;5.26;81.74;100582.84;3576365;40;20053;-62
2022/12/08 10:55:45;;;;;;;28.55;18.52;;;;;;;5.25;82.09;100584.66;3578346;40;20480;-62
2022/12/08 10:58:27;;;;;;;25.00;17.13;;;;;;;5.27;82.15;100579.28;3579149;40;20386;-62
2022/12/08 11:01:20;;;;;;;25.17;16.25;;;;;;;5.21;81.78;100585.72;3575521;40;20149;-62
2022/12/08 11:03:57;;;;;;;20.58;14.57;;;;;;;5.18;81.61;100583.19;3577181;40;20064;-62
2022/12/08 11:06:35;;;;;;;21.13;15.40;;;;;;;5.12;81.66;100580.81;3577587;40;20056;-62
2022/12/08 11:09:23;;;;;;;22.13;15.85;;;;;;;5.14;82.57;100573.63;3574285;40;20063;-62
2022/12/08 11:11:56;;;;;;;22.05;16.52;;;;;;;5.14;82.29;100568.28;3574798;40;20052;-62
2022/12/08 11:14:27;;;;;;;27.02;18.65;;;;;;;5.15;82.72;100561.16;3577216;40;20068;-62
2022/12/08 11:17:01;;;;;;;24.52;16.92;;;;;;;5.05;82.14;100552.69;3576445;40;20090;-62
2022/12/08 11:19:27;;;;;;;25.38;18.17;;;;;;;5.12;82.26;100567.47;3575325;40;20100;-62
2022/12/08 11:21:53;;;;;;;22.02;17.05;;;;;;;5.05;81.90;100550.91;3578254;40;20058;-62
2022/12/08 11:24:27;;;;;;;21.48;17.10;;;;;;;5.10;81.71;100548.03;3578557;40;20062;-62
2022/12/08 11:27:03;;;;;;;26.98;19.42;;;;;;;5.12;82.22;100559.50;3577698;40;20125;-62
2022/12/08 11:29:34;;;;;;;27.83;19.52;;;;;;;5.15;82.17;100556.69;3578748;40;20060;-62
2022/12/08 11:32:11;;;;;;;25.40;18.98;;;;;;;5.15;82.29;100548.69;3575450;40;20615;-62
2022/12/08 11:35:00;;;;;;;26.70;20.30;;;;;;;5.17;82.68;100543.28;3578623;40;20056;-62
2022/12/08 11:37:39;;;;;;;26.38;18.63;;;;;;;5.18;82.60;100540.56;3576557;40;20112;-62
2022/12/08 11:40:19;;;;;;;28.50;19.38;;;;;;;5.20;82.13;100543.16;3577336;40;20380;-62
2022/12/08 11:43:14;;;;;;;24.25;19.45;;;;;;;5.19;82.71;100534.28;3577927;40;20126;-62
2022/12/08 11:45:41;;;;;;;24.92;19.15;;;;;;;5.21;82.80;100540.44;3558319;40;20066;-62
2022/12/08 11:48:34;;;;;;;26.40;18.98;;;;;;;5.19;82.42;100539.63;3577706;40;20044;-62